Rogers Spring, Nevada Weather observations

Data are for 10 minute period ending at time listed.
 Day   Time   Solar   Ave.   Ave.  Ave.  Vector  Max.   Baro.   Total    
  of    of     Rad.   Air    Rel.  Wind   Wind   Wind  Press.  Precip.   
Year   Day            Temp.  Hum.  Speed  Dir.   Gust                    
2015   (PST)  Kw/m2    F      %     mph   deg.    mph    mb.     in.     
-------------------------------------------------------------------------
 116   11:50   0.97   71.1    16   11.7   331    22.1   933.1    0.00 
 116   12:00   0.97   71.0    16   12.9   329    21.5   933.0    0.00 
 116   12:10   0.97   71.4    16   14.4   327    24.2   933.1    0.00 
 116   12:20   0.97   71.7    16   13.2   314    23.6   933.0    0.00 
 116   12:30   0.96   72.4    16   13.0   319    21.6   933.0    0.00 
 116   12:40   0.94   72.0    16   15.0   322    27.0   933.0    0.00 
 116   12:50   0.95   72.4    15   10.5   324    21.6   932.8    0.00 
 116   13:00   0.92   73.1    15   12.8   327    25.6   932.7    0.00 
 116   13:10   0.85   73.0    15   11.5   319    19.1   932.7    0.00 
 116   13:20   0.81   72.8    15   11.1   325    22.8   932.6    0.00 
 116   13:30   0.91   73.7    15   11.2   335    20.4   932.5    0.00 
 116   13:40   0.84   73.8    14   13.0   326    22.6   932.3    0.00 
 116   13:50   0.74   73.1    15   10.7   316    23.3   932.1    0.00 
 116   14:00   0.86   74.4    14   13.6   316    23.3   932.0    0.00 
 116   14:10   0.79   74.6    14   12.0   324    22.4   931.8    0.00 
 116   14:20   0.79   75.3    14   12.4   317    23.6   931.5    0.00 
 116   14:30   0.73   74.9    14   12.1   315    21.0   931.4    0.00 
 116   14:40   0.72   75.1    14   13.2   314    23.5   931.3    0.00 
 116   14:50   0.68   75.1    14   13.6   312    26.3   931.1    0.00 
 116   15:00   0.68   75.4    14   14.0   322    22.2   931.1    0.00 
 116   15:10   0.65   75.4    13   14.2   320    26.7   930.9    0.00 
 116   15:20   0.61   75.6    13   13.2   318    23.3   930.9    0.00 
 116   15:30   0.58   76.0    13   12.8   310    22.2   930.8    0.00 
 116   15:40   0.55   76.1    13   13.8   318    24.8   930.6    0.00 
 116   15:50   0.52   75.6    13   15.6   320    26.5   930.6    0.00 
 116   16:00   0.48   75.7    13   13.3   324    20.5   930.6    0.00 
 116   16:10   0.37   75.6    13   13.2   329    19.9   930.7    0.00 
 116   16:20   0.30   74.2    14   11.7   329    20.5   930.5    0.00 
 116   16:30   0.37   74.2    13   10.3    58    19.7   930.8    0.00 
 116   16:40   0.31   73.8    13   11.4    49    19.6   930.9    0.00 
 116   16:50   0.31   73.1    13   12.4    44    19.6   930.9    0.00 
 116   17:00   0.26   73.0    14   10.2    39    18.3   930.9    0.00 
 116   17:10   0.21   72.7    14   10.6    36    16.9   931.1    0.00 
 116   17:20   0.17   71.8    14   11.2    42    18.5   931.1    0.00 
 116   17:30   0.15   70.8    14   13.0    49    19.4   931.2    0.00 
 116   17:40   0.11   70.2    14   12.4    37    19.4   931.4    0.00 
 116   17:50   0.08   69.8    14   11.2    33    19.3   931.5    0.00 
 116   18:00   0.04   69.0    14   12.0    32    20.4   931.7    0.00 
 116   18:10   0.04   68.4    15   11.1    29    19.7   931.8    0.00 
 116   18:20   0.02   67.5    16    8.8    34    14.4   932.1    0.00 
 116   18:30   0.01   66.9    16   10.7    37    17.1   932.2    0.00 
 116   18:40   0.00   66.3    16   10.2    32    16.2   932.3    0.00 
 116   18:50   0.00   66.4    16   11.9    26    20.1   932.5    0.00 
 116   19:00   0.00   66.2    16   12.6    25    20.0   932.6    0.00 
 116   19:10   0.00   65.9    16   13.3    23    20.3   932.6    0.00 
 116   19:20   0.00   65.9    16   13.8    24    20.8   932.9    0.00 
 116   19:30   0.00   65.5    16   13.4    24    20.1   933.1    0.00 
 116   19:40   0.00   65.1    16   13.6    24    24.5   933.3    0.00 
 116   19:50   0.00   65.0    16   14.4    26    23.4   933.6    0.00 
 116   20:00   0.00   64.5    17   13.1    27    20.7   933.7    0.00 
 116   20:10   0.00   64.2    17   12.1    22    19.5   934.0    0.00 
 116   20:20   0.00   64.0    17   12.2    24    18.9   934.2    0.00 
 116   20:30   0.00   63.9    17   12.8    26    19.6   934.4    0.00 
 116   20:40   0.00   63.7    17   12.6    26    19.7   934.6    0.00 
 116   20:50   0.00   63.4    17   12.2    29    22.4   934.8    0.00 
 116   21:00   0.00   63.2    17   12.3    27    21.9   934.9    0.00 
 116   21:10   0.00   63.0    17   12.8    22    20.4   934.9    0.00 
 116   21:20   0.00   62.9    17   13.7    19    20.2   935.0    0.00 
 116   21:30   0.00   62.7    17   13.2    25    22.6   935.2    0.00 
 116   21:40   0.00   62.6    17   13.9    26    24.3   935.3    0.00 
 116   21:50   0.00   62.3    17   13.6    24    24.3   935.4    0.00 
 116   22:00   0.00   62.3    17   14.3    19    24.0   935.3    0.00 
 116   22:10   0.00   62.3    17   13.5    17    22.0   935.5    0.00 
 116   22:20   0.00   62.0    18   12.3    17    19.1   935.7    0.00 
 116   22:30   0.00   61.3    18   12.8    16    21.2   935.9    0.00 
 116   22:40   0.00   61.2    18   12.7    13    20.3   936.0    0.00 
 116   22:50   100.00  99999.0   99999  99999.0   99999   99999.0   99999.0   99999.00 
 116   23:00   100.00  99999.0   99999  99999.0   99999   99999.0   99999.0   99999.00 
 116   23:10   100.00  99999.0   99999  99999.0   99999   99999.0   99999.0   99999.00 
 116   23:20   100.00  99999.0   99999  99999.0   99999   99999.0   99999.0   99999.00 
 116   23:30   100.00  99999.0   99999  99999.0   99999   99999.0   99999.0   99999.00 
 116   23:40   100.00  99999.0   99999  99999.0   99999   99999.0   99999.0   99999.00 
 116   23:50   0.00   59.2    20   10.8     8    16.4   936.2    0.00 
 117    0:00   0.00   58.6    21   10.2     7    14.2   936.2    0.00 
 117    0:10   0.00   58.4    21    9.9     3    16.1   936.2    0.00 
 117    0:20   0.00   58.0    22    6.5   354    13.8   936.2    0.00 
 117    0:30   0.00   57.6    22    5.2   350     9.6   936.2    0.00 
 117    0:40   0.00   57.2    22    6.2     4    10.3   936.2    0.00 
 117    0:50   0.00   57.0    23    8.5     4    12.6   936.2    0.00 
 117    1:00   0.00   56.9    23    9.0   359    14.5   936.0    0.00 
 117    1:10   0.00   56.8    23    9.0   350    14.1   936.1    0.00 
 117    1:20   0.00   56.5    23    8.2   353    12.8   936.2    0.00 
 117    1:30   0.00   56.4    24    8.3   350    14.5   936.2    0.00 
 117    1:40   0.00   56.1    24    8.5   346    12.8   936.3    0.00 
 117    1:50   0.00   55.4    25    7.9   355    13.5   936.4    0.00 
 117    2:00   0.00   55.5    25   10.3     2    16.2   936.4    0.00 
 117    2:10   0.00   56.5    23   12.8     5    17.5   936.3    0.00 
 117    2:20   0.00   56.8    23   12.0    12    17.0   936.4    0.00 
 117    2:30   0.00   56.6    24   10.6    14    16.1   936.6    0.00 
 117    2:40   0.00   56.2    25   10.0    10    14.7   936.6    0.00 
 117    2:50   0.00   55.7    25    9.5     8    16.1   936.7    0.00 
 117    3:00   0.00   55.3    26    9.4    11    14.8   936.7    0.00 
 117    3:10   0.00   54.6    27    7.4    10    12.6   936.8    0.00 
 117    3:20   0.00   53.0    29    5.0     4     7.6   936.9    0.00 
 117    3:30   0.00   51.7    30    5.5    14     8.6   936.9    0.00 
 117    3:40   0.00   53.0    29    7.7     0    10.8   936.7    0.00 
 117    3:50   0.00   54.8    26    7.1   355    12.3   936.8    0.00 
 117    4:00   0.00   54.6    27    5.5     1     9.7   937.1    0.00 
 117    4:10   0.00   53.4    28    4.2    24     8.3   937.4    0.00 
 117    4:20   0.00   51.6    31    4.7    36     7.7   937.6    0.00 
 117    4:30   0.00   50.5    33    5.4    40     8.3   937.6    0.00 
 117    4:40   0.00   49.6    34    5.4    25     8.2   937.6    0.00 
 117    4:50   0.00   50.1    33    4.1    19     7.4   937.7    0.00 
 117    5:00   0.01   49.1    35    3.2    29     4.2   937.9    0.00 
 117    5:10   0.02   48.5    36    3.7    45     5.1   938.0    0.00 
 117    5:20   0.04   49.2    35    3.7    62     5.0   938.0    0.00 
 117    5:30   0.07   49.0    36    4.7    80     8.3   938.1    0.00 
 117    5:40   0.09   50.4    33    4.4    84     8.3   938.1    0.00 
 117    5:50   0.12   52.2    31    4.1    76     7.0   938.3    0.00 
 117    6:00   0.15   53.0    31    4.4    68     7.2   938.3    0.00 
 117    6:10   0.18   54.4    29    4.3    78     8.2   938.4    0.00 
 117    6:20   0.22   56.0    27    3.4    76     6.8   938.5    0.00 
 117    6:30   0.25   56.9    27    4.4    58     7.3   938.6    0.00 
 117    6:40   0.29   58.1    26    5.0    50     8.6   938.6    0.00 
 117    6:50   0.33   59.5    23    5.9    54     8.6   938.7    0.00 
 117    7:00   0.36   60.4    22    5.3    44     7.3   938.9    0.00 
 117    7:10   0.40   60.9    21    5.1    44     7.5   938.9    0.00 
 117    7:20   0.43   61.7    21    4.3    39     7.4   939.0    0.00 
 117    7:30   0.47   62.3    20    4.4    14     6.6   939.2    0.00 
 117    7:40   0.50   63.0    20    4.2     4     7.5   939.2    0.00 
 117    7:50   0.54   63.2    20    5.2    33     9.3   939.2    0.00 
 117    8:00   0.57   63.9    19    5.5    19     9.1   939.2    0.00 
 117    8:10   0.60   65.0    18    7.8   350    14.2   939.2    0.00 
 117    8:20   0.64   65.6    18    7.5   344    13.4   939.3    0.00 
 117    8:30   0.67   65.9    18    8.0   359    14.5   939.3    0.00 
 117    8:40   0.70   67.5    16   10.2    23    17.5   939.2    0.00 
 117    8:50   0.72   68.0    15   11.6    23    19.3   939.1    0.00 
 117    9:00   0.75   68.0    16   12.6    36    18.8   939.0    0.00 
 117    9:10   0.78   68.5    16   11.8    36    18.4   938.9    0.00 
 117    9:20   0.80   68.5    16   10.7    40    19.2   938.9    0.00 
 117    9:30   0.82   70.2    15    9.9    23    16.6   938.7    0.00 
 117    9:40   0.85   69.9    15   12.3    24    20.8   938.6    0.00 
 117    9:50   0.87   70.4    14   11.3    15    18.4   938.5    0.00 
 117   10:00   0.88   71.0    14   10.1    17    17.2   938.5    0.00 
 117   10:10   0.90   71.4    14   12.2     7    19.4   938.4    0.00 
 117   10:20   0.92   72.3    14   11.4    29    19.3   938.3    0.00 
 117   10:30   0.93   72.7    14   11.7     5    20.2   938.1    0.00 
 117   10:40   0.94   73.3    14   10.5    12    17.1   937.8    0.00 
 117   10:50   0.95   73.5    13   11.6   358    18.0   937.7    0.00 
 117   11:00   0.96   74.3    13   12.1     0    18.3   937.5    0.00 
 117   11:10   0.97   74.2    13   11.0    25    21.8   937.5    0.00 
 117   11:20   0.98   74.5    13    9.4     4    15.7   937.3    0.00 
 117   11:30   0.98   75.2    12   10.7    16    16.8   937.2    0.00 
 117   11:40   0.98   75.2    12    9.4    21    18.1   937.1    0.00 

Return to Rogers Spring graphs page.


Western Regional Climate Center,wrcc@dri.edu